sensor_id;sensor_type;location;lat;lon;timestamp;temperature;humidity
1830;DHT22;914;48.118;11.600;2022-07-04T00:00:51;25.50;84.50
1830;DHT22;914;48.118;11.600;2022-07-04T00:03:17;25.60;84.40
1830;DHT22;914;48.118;11.600;2022-07-04T00:05:42;25.60;84.30
1830;DHT22;914;48.118;11.600;2022-07-04T00:08:08;25.60;85.60
1830;DHT22;914;48.118;11.600;2022-07-04T00:10:34;25.50;85.10
1830;DHT22;914;48.118;11.600;2022-07-04T00:12:59;25.50;85.00
1830;DHT22;914;48.118;11.600;2022-07-04T00:15:25;25.40;85.50
1830;DHT22;914;48.118;11.600;2022-07-04T00:17:51;25.30;86.00
1830;DHT22;914;48.118;11.600;2022-07-04T00:20:16;25.30;86.70
1830;DHT22;914;48.118;11.600;2022-07-04T00:22:42;25.40;86.40
1830;DHT22;914;48.118;11.600;2022-07-04T00:25:08;25.20;87.20
1830;DHT22;914;48.118;11.600;2022-07-04T00:27:34;25.10;89.50
1830;DHT22;914;48.118;11.600;2022-07-04T00:30:00;25.10;90.20
1830;DHT22;914;48.118;11.600;2022-07-04T00:32:26;25.00;89.40
1830;DHT22;914;48.118;11.600;2022-07-04T00:34:51;25.10;89.60
1830;DHT22;914;48.118;11.600;2022-07-04T00:37:17;25.10;89.90
1830;DHT22;914;48.118;11.600;2022-07-04T00:39:42;25.00;90.50
1830;DHT22;914;48.118;11.600;2022-07-04T00:42:08;25.00;90.50
1830;DHT22;914;48.118;11.600;2022-07-04T00:44:34;24.90;90.80
1830;DHT22;914;48.118;11.600;2022-07-04T00:47:07;24.80;90.70
1830;DHT22;914;48.118;11.600;2022-07-04T00:49:33;24.70;90.70
1830;DHT22;914;48.118;11.600;2022-07-04T00:52:00;24.60;91.10
1830;DHT22;914;48.118;11.600;2022-07-04T00:54:30;24.80;91.00
1830;DHT22;914;48.118;11.600;2022-07-04T00:56:58;24.90;90.50
1830;DHT22;914;48.118;11.600;2022-07-04T00:59:24;25.10;90.20
1830;DHT22;914;48.118;11.600;2022-07-04T01:01:50;25.30;90.10
1830;DHT22;914;48.118;11.600;2022-07-04T01:04:17;24.50;90.80
1830;DHT22;914;48.118;11.600;2022-07-04T01:06:43;24.40;91.50
1830;DHT22;914;48.118;11.600;2022-07-04T01:09:10;24.40;91.60
1830;DHT22;914;48.118;11.600;2022-07-04T01:11:36;24.30;91.80
1830;DHT22;914;48.118;11.600;2022-07-04T01:14:01;23.90;92.50
1830;DHT22;914;48.118;11.600;2022-07-04T01:16:28;23.90;92.80
1830;DHT22;914;48.118;11.600;2022-07-04T01:18:54;24.10;92.80
1830;DHT22;914;48.118;11.600;2022-07-04T01:21:21;23.90;92.90
1830;DHT22;914;48.118;11.600;2022-07-04T01:23:47;24.10;92.60
1830;DHT22;914;48.118;11.600;2022-07-04T01:26:13;24.40;92.50
1830;DHT22;914;48.118;11.600;2022-07-04T01:28:39;24.50;92.20
1830;DHT22;914;48.118;11.600;2022-07-04T01:31:05;24.60;91.50
1830;DHT22;914;48.118;11.600;2022-07-04T01:33:31;24.60;91.20
1830;DHT22;914;48.118;11.600;2022-07-04T01:35:57;24.70;90.60
1830;DHT22;914;48.118;11.600;2022-07-04T01:38:23;24.70;90.00
1830;DHT22;914;48.118;11.600;2022-07-04T01:40:49;24.70;90.00
1830;DHT22;914;48.118;11.600;2022-07-04T01:43:15;24.80;90.00
1830;DHT22;914;48.118;11.600;2022-07-04T01:45:40;24.80;89.40
1830;DHT22;914;48.118;11.600;2022-07-04T01:48:08;24.70;90.20
1830;DHT22;914;48.118;11.600;2022-07-04T01:50:34;24.80;89.90
1830;DHT22;914;48.118;11.600;2022-07-04T01:53:00;24.90;89.70
1830;DHT22;914;48.118;11.600;2022-07-04T01:55:26;25.00;89.20
1830;DHT22;914;48.118;11.600;2022-07-04T01:57:52;25.00;89.00
1830;DHT22;914;48.118;11.600;2022-07-04T02:00:18;25.10;89.10
1830;DHT22;914;48.118;11.600;2022-07-04T02:03:02;25.10;89.00
1830;DHT22;914;48.118;11.600;2022-07-04T02:05:27;25.00;89.40
1830;DHT22;914;48.118;11.600;2022-07-04T02:07:53;25.00;89.40
1830;DHT22;914;48.118;11.600;2022-07-04T02:10:19;25.00;89.40
1830;DHT22;914;48.118;11.600;2022-07-04T02:12:45;25.00;89.90
1830;DHT22;914;48.118;11.600;2022-07-04T02:15:39;25.00;90.00
1830;DHT22;914;48.118;11.600;2022-07-04T02:18:08;24.90;90.10
1830;DHT22;914;48.118;11.600;2022-07-04T02:20:34;24.80;90.20
1830;DHT22;914;48.118;11.600;2022-07-04T02:23:01;24.70;90.50
1830;DHT22;914;48.118;11.600;2022-07-04T02:25:28;24.70;90.60
1830;DHT22;914;48.118;11.600;2022-07-04T02:27:55;24.80;90.50
1830;DHT22;914;48.118;11.600;2022-07-04T02:30:20;24.90;90.40
1830;DHT22;914;48.118;11.600;2022-07-04T02:32:46;24.80;90.40
1830;DHT22;914;48.118;11.600;2022-07-04T02:35:12;24.70;90.80
1830;DHT22;914;48.118;11.600;2022-07-04T02:37:39;24.70;90.70
1830;DHT22;914;48.118;11.600;2022-07-04T02:40:06;24.60;91.30
1830;DHT22;914;48.118;11.600;2022-07-04T02:42:33;24.50;91.10
1830;DHT22;914;48.118;11.600;2022-07-04T02:44:59;24.50;91.00
1830;DHT22;914;48.118;11.600;2022-07-04T02:47:25;24.60;91.00
1830;DHT22;914;48.118;11.600;2022-07-04T02:49:50;24.50;91.10
1830;DHT22;914;48.118;11.600;2022-07-04T02:52:16;24.40;91.30
1830;DHT22;914;48.118;11.600;2022-07-04T02:54:42;24.30;91.30
1830;DHT22;914;48.118;11.600;2022-07-04T02:57:08;24.30;91.40
1830;DHT22;914;48.118;11.600;2022-07-04T02:59:34;24.30;91.30
1830;DHT22;914;48.118;11.600;2022-07-04T03:01:59;24.00;91.50
1830;DHT22;914;48.118;11.600;2022-07-04T03:04:25;24.00;92.00
1830;DHT22;914;48.118;11.600;2022-07-04T03:06:51;24.10;91.80
1830;DHT22;914;48.118;11.600;2022-07-04T03:09:16;24.20;91.50
1830;DHT22;914;48.118;11.600;2022-07-04T03:11:43;24.40;91.40
1830;DHT22;914;48.118;11.600;2022-07-04T03:14:09;24.60;91.10
1830;DHT22;914;48.118;11.600;2022-07-04T03:16:35;24.50;91.40
1830;DHT22;914;48.118;11.600;2022-07-04T03:19:01;24.30;91.60
1830;DHT22;914;48.118;11.600;2022-07-04T03:21:26;24.30;91.60
1830;DHT22;914;48.118;11.600;2022-07-04T03:23:52;24.30;91.60
1830;DHT22;914;48.118;11.600;2022-07-04T03:26:27;24.30;91.50
1830;DHT22;914;48.118;11.600;2022-07-04T03:28:55;24.30;91.70
1830;DHT22;914;48.118;11.600;2022-07-04T03:31:22;23.90;92.10
1830;DHT22;914;48.118;11.600;2022-07-04T03:33:47;23.90;92.50
1830;DHT22;914;48.118;11.600;2022-07-04T03:36:13;23.90;92.40
1830;DHT22;914;48.118;11.600;2022-07-04T03:38:39;24.00;92.30
1830;DHT22;914;48.118;11.600;2022-07-04T03:41:04;24.10;92.30
1830;DHT22;914;48.118;11.600;2022-07-04T03:43:30;24.10;92.30
1830;DHT22;914;48.118;11.600;2022-07-04T03:45:56;24.30;92.20
1830;DHT22;914;48.118;11.600;2022-07-04T03:48:21;24.30;91.90
1830;DHT22;914;48.118;11.600;2022-07-04T03:50:47;24.30;92.00
1830;DHT22;914;48.118;11.600;2022-07-04T03:53:12;24.50;92.10
1830;DHT22;914;48.118;11.600;2022-07-04T03:55:38;24.50;92.40
1830;DHT22;914;48.118;11.600;2022-07-04T03:58:05;24.40;92.30
1830;DHT22;914;48.118;11.600;2022-07-04T04:00:31;24.30;92.60
1830;DHT22;914;48.118;11.600;2022-07-04T04:02:58;24.20;92.60
1830;DHT22;914;48.118;11.600;2022-07-04T04:05:24;24.20;92.50
1830;DHT22;914;48.118;11.600;2022-07-04T04:07:57;24.20;92.30
1830;DHT22;914;48.118;11.600;2022-07-04T04:10:25;24.30;92.50
1830;DHT22;914;48.118;11.600;2022-07-04T04:12:51;24.30;92.60
1830;DHT22;914;48.118;11.600;2022-07-04T04:15:17;24.40;92.50
1830;DHT22;914;48.118;11.600;2022-07-04T04:17:43;24.40;92.10
1830;DHT22;914;48.118;11.600;2022-07-04T04:20:08;24.40;92.30
1830;DHT22;914;48.118;11.600;2022-07-04T04:22:34;24.30;92.90
1830;DHT22;914;48.118;11.600;2022-07-04T04:25:00;24.30;92.80
1830;DHT22;914;48.118;11.600;2022-07-04T04:27:26;24.10;93.30
1830;DHT22;914;48.118;11.600;2022-07-04T04:29:52;24.10;93.10
1830;DHT22;914;48.118;11.600;2022-07-04T04:32:17;24.30;93.10
1830;DHT22;914;48.118;11.600;2022-07-04T04:34:43;24.40;92.90
1830;DHT22;914;48.118;11.600;2022-07-04T04:37:09;24.30;93.10
1830;DHT22;914;48.118;11.600;2022-07-04T04:39:34;24.00;93.50
1830;DHT22;914;48.118;11.600;2022-07-04T04:42:00;23.90;93.90
1830;DHT22;914;48.118;11.600;2022-07-04T04:44:26;24.00;93.80
1830;DHT22;914;48.118;11.600;2022-07-04T04:46:51;24.10;93.60
1830;DHT22;914;48.118;11.600;2022-07-04T04:49:17;24.10;93.80
1830;DHT22;914;48.118;11.600;2022-07-04T04:51:44;24.10;94.20
1830;DHT22;914;48.118;11.600;2022-07-04T04:54:10;24.40;93.70
1830;DHT22;914;48.118;11.600;2022-07-04T04:56:35;24.50;93.90
1830;DHT22;914;48.118;11.600;2022-07-04T04:59:01;24.60;93.50
1830;DHT22;914;48.118;11.600;2022-07-04T05:01:26;24.70;92.90
1830;DHT22;914;48.118;11.600;2022-07-04T05:03:52;24.80;92.70
1830;DHT22;914;48.118;11.600;2022-07-04T05:06:18;24.80;92.30
1830;DHT22;914;48.118;11.600;2022-07-04T05:08:44;24.80;92.40
1830;DHT22;914;48.118;11.600;2022-07-04T05:11:10;24.80;92.90
1830;DHT22;914;48.118;11.600;2022-07-04T05:13:36;24.90;92.40
1830;DHT22;914;48.118;11.600;2022-07-04T05:16:01;24.80;92.30
1830;DHT22;914;48.118;11.600;2022-07-04T05:18:27;24.80;92.40
1830;DHT22;914;48.118;11.600;2022-07-04T05:20:53;24.70;92.60
1830;DHT22;914;48.118;11.600;2022-07-04T05:23:18;24.80;92.60
1830;DHT22;914;48.118;11.600;2022-07-04T05:25:44;24.60;92.50
1830;DHT22;914;48.118;11.600;2022-07-04T05:28:09;24.70;92.60
1830;DHT22;914;48.118;11.600;2022-07-04T05:30:35;24.60;92.90
1830;DHT22;914;48.118;11.600;2022-07-04T05:33:01;24.60;93.00
1830;DHT22;914;48.118;11.600;2022-07-04T05:35:27;24.60;93.20
1830;DHT22;914;48.118;11.600;2022-07-04T05:37:53;24.60;93.30
1830;DHT22;914;48.118;11.600;2022-07-04T05:40:19;24.50;93.30
1830;DHT22;914;48.118;11.600;2022-07-04T05:42:47;24.50;93.70
1830;DHT22;914;48.118;11.600;2022-07-04T05:45:12;24.50;94.20
1830;DHT22;914;48.118;11.600;2022-07-04T05:47:38;24.50;94.40
1830;DHT22;914;48.118;11.600;2022-07-04T05:50:04;24.50;94.90
1830;DHT22;914;48.118;11.600;2022-07-04T05:52:30;24.50;94.30
1830;DHT22;914;48.118;11.600;2022-07-04T05:54:55;24.40;94.40
1830;DHT22;914;48.118;11.600;2022-07-04T05:57:21;24.40;94.60
1830;DHT22;914;48.118;11.600;2022-07-04T05:59:47;24.20;94.90
1830;DHT22;914;48.118;11.600;2022-07-04T06:02:12;24.10;95.30
1830;DHT22;914;48.118;11.600;2022-07-04T06:04:39;24.10;95.30
1830;DHT22;914;48.118;11.600;2022-07-04T06:07:05;24.20;95.70
1830;DHT22;914;48.118;11.600;2022-07-04T06:09:31;24.20;95.50
1830;DHT22;914;48.118;11.600;2022-07-04T06:11:57;24.20;95.40
1830;DHT22;914;48.118;11.600;2022-07-04T06:14:22;24.30;95.70
1830;DHT22;914;48.118;11.600;2022-07-04T06:16:48;24.30;96.10
1830;DHT22;914;48.118;11.600;2022-07-04T06:19:14;24.30;95.90
1830;DHT22;914;48.118;11.600;2022-07-04T06:21:39;24.30;95.60
1830;DHT22;914;48.118;11.600;2022-07-04T06:24:05;24.30;95.70
1830;DHT22;914;48.118;11.600;2022-07-04T06:26:31;24.20;96.70
1830;DHT22;914;48.118;11.600;2022-07-04T06:28:57;24.20;96.00
1830;DHT22;914;48.118;11.600;2022-07-04T06:31:22;24.10;95.80
1830;DHT22;914;48.118;11.600;2022-07-04T06:33:48;24.30;95.40
1830;DHT22;914;48.118;11.600;2022-07-04T06:36:32;24.10;95.30
1830;DHT22;914;48.118;11.600;2022-07-04T06:38:58;24.00;95.80
1830;DHT22;914;48.118;11.600;2022-07-04T06:41:24;24.10;95.50
1830;DHT22;914;48.118;11.600;2022-07-04T06:43:50;24.10;95.80
1830;DHT22;914;48.118;11.600;2022-07-04T06:46:15;24.00;96.10
1830;DHT22;914;48.118;11.600;2022-07-04T06:48:41;24.00;96.80
1830;DHT22;914;48.118;11.600;2022-07-04T06:51:07;24.20;96.30
1830;DHT22;914;48.118;11.600;2022-07-04T06:53:32;24.10;96.40
1830;DHT22;914;48.118;11.600;2022-07-04T06:55:58;24.00;97.00
1830;DHT22;914;48.118;11.600;2022-07-04T06:58:24;24.10;96.90
1830;DHT22;914;48.118;11.600;2022-07-04T07:00:49;24.00;97.40
1830;DHT22;914;48.118;11.600;2022-07-04T07:03:15;23.90;97.90
1830;DHT22;914;48.118;11.600;2022-07-04T07:05:40;23.70;98.50
1830;DHT22;914;48.118;11.600;2022-07-04T07:08:06;23.80;98.10
1830;DHT22;914;48.118;11.600;2022-07-04T07:10:32;24.00;97.30
1830;DHT22;914;48.118;11.600;2022-07-04T07:12:59;23.90;97.40
1830;DHT22;914;48.118;11.600;2022-07-04T07:15:24;23.80;98.00
1830;DHT22;914;48.118;11.600;2022-07-04T07:17:50;23.80;97.40
1830;DHT22;914;48.118;11.600;2022-07-04T07:20:16;23.80;97.50
1830;DHT22;914;48.118;11.600;2022-07-04T07:22:42;23.90;97.60
1830;DHT22;914;48.118;11.600;2022-07-04T07:25:09;24.10;97.30
1830;DHT22;914;48.118;11.600;2022-07-04T07:27:35;24.10;97.30
1830;DHT22;914;48.118;11.600;2022-07-04T07:30:00;24.10;97.30
1830;DHT22;914;48.118;11.600;2022-07-04T07:32:26;24.10;97.50
1830;DHT22;914;48.118;11.600;2022-07-04T07:34:52;23.90;98.10
1830;DHT22;914;48.118;11.600;2022-07-04T07:37:17;23.80;97.90
1830;DHT22;914;48.118;11.600;2022-07-04T07:39:43;23.90;98.00
1830;DHT22;914;48.118;11.600;2022-07-04T07:42:09;23.70;98.70
1830;DHT22;914;48.118;11.600;2022-07-04T07:44:35;23.70;98.50
1830;DHT22;914;48.118;11.600;2022-07-04T07:47:00;23.70;98.70
1830;DHT22;914;48.118;11.600;2022-07-04T07:49:26;23.70;99.10
1830;DHT22;914;48.118;11.600;2022-07-04T07:51:52;23.90;99.70
1830;DHT22;914;48.118;11.600;2022-07-04T07:54:18;24.00;99.80
1830;DHT22;914;48.118;11.600;2022-07-04T07:56:44;24.20;99.00
1830;DHT22;914;48.118;11.600;2022-07-04T07:59:09;24.30;98.70
1830;DHT22;914;48.118;11.600;2022-07-04T08:01:35;24.40;98.60
1830;DHT22;914;48.118;11.600;2022-07-04T08:04:01;24.50;97.90
1830;DHT22;914;48.118;11.600;2022-07-04T08:06:45;24.60;97.70
1830;DHT22;914;48.118;11.600;2022-07-04T08:09:11;24.60;97.50
1830;DHT22;914;48.118;11.600;2022-07-04T08:11:40;24.60;97.50
1830;DHT22;914;48.118;11.600;2022-07-04T08:14:05;24.70;97.90
1830;DHT22;914;48.118;11.600;2022-07-04T08:16:33;24.60;97.60
1830;DHT22;914;48.118;11.600;2022-07-04T08:18:59;24.80;97.70
1830;DHT22;914;48.118;11.600;2022-07-04T08:21:25;24.80;97.00
1830;DHT22;914;48.118;11.600;2022-07-04T08:23:50;24.90;96.90
1830;DHT22;914;48.118;11.600;2022-07-04T08:26:16;25.20;96.60
1830;DHT22;914;48.118;11.600;2022-07-04T08:28:41;25.00;96.60
1830;DHT22;914;48.118;11.600;2022-07-04T08:31:07;25.00;96.90
1830;DHT22;914;48.118;11.600;2022-07-04T08:33:33;25.10;96.70
1830;DHT22;914;48.118;11.600;2022-07-04T08:35:58;25.20;97.30
1830;DHT22;914;48.118;11.600;2022-07-04T08:38:24;25.40;96.80
1830;DHT22;914;48.118;11.600;2022-07-04T08:40:56;25.60;96.70
1830;DHT22;914;48.118;11.600;2022-07-04T08:43:23;25.50;95.80
1830;DHT22;914;48.118;11.600;2022-07-04T08:45:49;25.60;95.60
1830;DHT22;914;48.118;11.600;2022-07-04T08:48:18;25.50;96.80
1830;DHT22;914;48.118;11.600;2022-07-04T08:51:37;25.50;96.00
1830;DHT22;914;48.118;11.600;2022-07-04T08:53:38;25.50;95.80
1830;DHT22;914;48.118;11.600;2022-07-04T08:56:05;25.50;96.00
1830;DHT22;914;48.118;11.600;2022-07-04T08:58:51;25.60;96.30
1830;DHT22;914;48.118;11.600;2022-07-04T09:01:17;25.80;96.50
1830;DHT22;914;48.118;11.600;2022-07-04T09:03:44;26.00;96.30
1830;DHT22;914;48.118;11.600;2022-07-04T09:06:11;26.20;96.00
1830;DHT22;914;48.118;11.600;2022-07-04T09:08:38;26.50;95.70
1830;DHT22;914;48.118;11.600;2022-07-04T09:11:05;26.70;95.40
1830;DHT22;914;48.118;11.600;2022-07-04T09:13:31;26.90;94.40
1830;DHT22;914;48.118;11.600;2022-07-04T09:15:57;26.80;92.90
1830;DHT22;914;48.118;11.600;2022-07-04T09:20:53;26.90;92.90
1830;DHT22;914;48.118;11.600;2022-07-04T09:23:25;27.10;92.50
1830;DHT22;914;48.118;11.600;2022-07-04T09:26:10;27.40;92.20
1830;DHT22;914;48.118;11.600;2022-07-04T09:28:38;27.50;92.40
1830;DHT22;914;48.118;11.600;2022-07-04T09:31:16;27.70;91.60
1830;DHT22;914;48.118;11.600;2022-07-04T09:33:52;27.70;91.60
1830;DHT22;914;48.118;11.600;2022-07-04T09:36:24;27.80;91.90
1830;DHT22;914;48.118;11.600;2022-07-04T09:39:11;27.90;91.10
1830;DHT22;914;48.118;11.600;2022-07-04T09:44:20;27.80;90.70
1830;DHT22;914;48.118;11.600;2022-07-04T09:46:46;27.40;91.00
1830;DHT22;914;48.118;11.600;2022-07-04T09:49:12;27.60;91.80
1830;DHT22;914;48.118;11.600;2022-07-04T09:51:47;27.60;93.20
1830;DHT22;914;48.118;11.600;2022-07-04T09:54:22;28.00;90.90
1830;DHT22;914;48.118;11.600;2022-07-04T09:56:56;28.30;89.40
1830;DHT22;914;48.118;11.600;2022-07-04T09:59:23;28.30;89.90
1830;DHT22;914;48.118;11.600;2022-07-04T10:01:49;28.10;89.10
1830;DHT22;914;48.118;11.600;2022-07-04T10:04:15;27.90;88.60
1830;DHT22;914;48.118;11.600;2022-07-04T10:06:43;28.00;89.80
1830;DHT22;914;48.118;11.600;2022-07-04T10:09:15;28.10;88.90
1830;DHT22;914;48.118;11.600;2022-07-04T10:11:43;28.20;88.40
1830;DHT22;914;48.118;11.600;2022-07-04T10:14:10;28.40;90.40
1830;DHT22;914;48.118;11.600;2022-07-04T10:16:38;28.40;89.90
1830;DHT22;914;48.118;11.600;2022-07-04T10:19:05;28.20;89.60
1830;DHT22;914;48.118;11.600;2022-07-04T10:21:32;28.60;87.30
1830;DHT22;914;48.118;11.600;2022-07-04T10:23:58;28.30;87.30
1830;DHT22;914;48.118;11.600;2022-07-04T10:26:24;28.30;86.90
1830;DHT22;914;48.118;11.600;2022-07-04T10:28:52;28.40;88.50
1830;DHT22;914;48.118;11.600;2022-07-04T10:31:20;28.70;84.60
1830;DHT22;914;48.118;11.600;2022-07-04T10:33:47;28.30;86.90
1830;DHT22;914;48.118;11.600;2022-07-04T10:36:16;28.20;86.10
1830;DHT22;914;48.118;11.600;2022-07-04T10:41:14;27.90;87.50
1830;DHT22;914;48.118;11.600;2022-07-04T10:43:54;27.80;89.50
1830;DHT22;914;48.118;11.600;2022-07-04T10:56:45;28.10;88.00
1830;DHT22;914;48.118;11.600;2022-07-04T10:59:23;28.20;88.30
1830;DHT22;914;48.118;11.600;2022-07-04T11:07:12;28.40;87.80
1830;DHT22;914;48.118;11.600;2022-07-04T11:09:38;28.60;84.40
1830;DHT22;914;48.118;11.600;2022-07-04T11:12:04;28.60;84.90
1830;DHT22;914;48.118;11.600;2022-07-04T11:14:38;28.40;84.10
1830;DHT22;914;48.118;11.600;2022-07-04T11:17:16;28.40;85.00
1830;DHT22;914;48.118;11.600;2022-07-04T11:19:45;28.40;84.30
1830;DHT22;914;48.118;11.600;2022-07-04T11:22:11;28.40;84.70
1830;DHT22;914;48.118;11.600;2022-07-04T11:24:40;28.60;84.30
1830;DHT22;914;48.118;11.600;2022-07-04T11:27:08;28.50;85.50
1830;DHT22;914;48.118;11.600;2022-07-04T11:29:35;28.60;86.90
1830;DHT22;914;48.118;11.600;2022-07-04T11:32:00;28.70;83.90
1830;DHT22;914;48.118;11.600;2022-07-04T11:34:32;28.80;86.00
1830;DHT22;914;48.118;11.600;2022-07-04T11:36:58;29.20;82.90
1830;DHT22;914;48.118;11.600;2022-07-04T11:39:26;29.20;82.70
1830;DHT22;914;48.118;11.600;2022-07-04T11:41:53;29.30;82.90
1830;DHT22;914;48.118;11.600;2022-07-04T11:44:40;28.70;84.10
1830;DHT22;914;48.118;11.600;2022-07-04T11:47:33;28.50;87.80
1830;DHT22;914;48.118;11.600;2022-07-04T11:50:01;28.60;87.30
1830;DHT22;914;48.118;11.600;2022-07-04T11:55:06;29.20;83.50
1830;DHT22;914;48.118;11.600;2022-07-04T11:57:39;29.50;83.50
1830;DHT22;914;48.118;11.600;2022-07-04T12:02:34;30.00;85.20
1830;DHT22;914;48.118;11.600;2022-07-04T12:05:00;29.70;80.50
1830;DHT22;914;48.118;11.600;2022-07-04T12:07:28;29.70;81.20
1830;DHT22;914;48.118;11.600;2022-07-04T12:09:56;29.60;79.20
1830;DHT22;914;48.118;11.600;2022-07-04T12:12:22;29.00;77.20
1830;DHT22;914;48.118;11.600;2022-07-04T12:14:57;29.20;81.60
1830;DHT22;914;48.118;11.600;2022-07-04T12:17:35;29.30;81.30
1830;DHT22;914;48.118;11.600;2022-07-04T12:20:13;29.50;82.90
1830;DHT22;914;48.118;11.600;2022-07-04T12:22:48;29.50;80.30
1830;DHT22;914;48.118;11.600;2022-07-04T12:25:22;29.70;80.90
1830;DHT22;914;48.118;11.600;2022-07-04T12:27:59;29.40;79.90
1830;DHT22;914;48.118;11.600;2022-07-04T12:30:26;29.40;80.00
1830;DHT22;914;48.118;11.600;2022-07-04T12:32:57;29.40;78.80
1830;DHT22;914;48.118;11.600;2022-07-04T12:35:44;29.60;81.80
1830;DHT22;914;48.118;11.600;2022-07-04T12:38:17;30.00;82.80
1830;DHT22;914;48.118;11.600;2022-07-04T12:43:25;31.00;77.80
1830;DHT22;914;48.118;11.600;2022-07-04T12:45:53;30.60;78.70
1830;DHT22;914;48.118;11.600;2022-07-04T12:48:24;31.00;79.00
1830;DHT22;914;48.118;11.600;2022-07-04T12:50:51;31.50;76.50
1830;DHT22;914;48.118;11.600;2022-07-04T12:53:18;31.30;76.20
1830;DHT22;914;48.118;11.600;2022-07-04T12:55:45;31.40;75.00
1830;DHT22;914;48.118;11.600;2022-07-04T12:58:12;31.10;77.40
1830;DHT22;914;48.118;11.600;2022-07-04T13:00:38;31.20;77.30
1830;DHT22;914;48.118;11.600;2022-07-04T13:03:05;31.60;76.30
1830;DHT22;914;48.118;11.600;2022-07-04T13:05:34;31.80;75.40
1830;DHT22;914;48.118;11.600;2022-07-04T13:08:03;32.00;74.40
1830;DHT22;914;48.118;11.600;2022-07-04T13:10:29;32.30;74.40
1830;DHT22;914;48.118;11.600;2022-07-04T13:12:57;32.80;72.50
1830;DHT22;914;48.118;11.600;2022-07-04T13:15:23;32.80;71.90
1830;DHT22;914;48.118;11.600;2022-07-04T13:17:49;33.10;73.20
1830;DHT22;914;48.118;11.600;2022-07-04T13:20:14;33.70;71.10
1830;DHT22;914;48.118;11.600;2022-07-04T13:22:40;33.70;70.20
1830;DHT22;914;48.118;11.600;2022-07-04T13:25:06;33.30;69.80
1830;DHT22;914;48.118;11.600;2022-07-04T13:27:32;31.90;71.50
1830;DHT22;914;48.118;11.600;2022-07-04T13:29:58;31.80;72.50
1830;DHT22;914;48.118;11.600;2022-07-04T13:32:24;32.80;71.50
1830;DHT22;914;48.118;11.600;2022-07-04T13:34:49;32.20;73.40
1830;DHT22;914;48.118;11.600;2022-07-04T13:37:16;32.30;74.50
1830;DHT22;914;48.118;11.600;2022-07-04T13:39:43;32.70;71.30
1830;DHT22;914;48.118;11.600;2022-07-04T13:42:09;33.10;72.00
1830;DHT22;914;48.118;11.600;2022-07-04T13:44:35;33.10;70.40
1830;DHT22;914;48.118;11.600;2022-07-04T13:47:01;33.80;69.00
1830;DHT22;914;48.118;11.600;2022-07-04T13:49:26;34.20;69.30
1830;DHT22;914;48.118;11.600;2022-07-04T13:51:53;33.30;68.10
1830;DHT22;914;48.118;11.600;2022-07-04T13:54:19;32.90;71.90
1830;DHT22;914;48.118;11.600;2022-07-04T13:56:45;31.70;71.10
1830;DHT22;914;48.118;11.600;2022-07-04T13:59:11;30.70;73.70
1830;DHT22;914;48.118;11.600;2022-07-04T14:01:37;31.30;76.50
1830;DHT22;914;48.118;11.600;2022-07-04T14:04:03;31.70;74.90
1830;DHT22;914;48.118;11.600;2022-07-04T14:06:28;31.90;74.50
1830;DHT22;914;48.118;11.600;2022-07-04T14:08:54;31.90;75.60
1830;DHT22;914;48.118;11.600;2022-07-04T14:11:20;31.80;75.60
1830;DHT22;914;48.118;11.600;2022-07-04T14:13:46;31.70;75.30
1830;DHT22;914;48.118;11.600;2022-07-04T14:16:12;31.30;74.90
1830;DHT22;914;48.118;11.600;2022-07-04T14:18:37;31.30;76.20
1830;DHT22;914;48.118;11.600;2022-07-04T14:21:03;31.30;75.90
1830;DHT22;914;48.118;11.600;2022-07-04T14:23:28;31.20;76.70
1830;DHT22;914;48.118;11.600;2022-07-04T14:26:08;30.80;76.70
1830;DHT22;914;48.118;11.600;2022-07-04T14:28:34;30.90;77.40
1830;DHT22;914;48.118;11.600;2022-07-04T14:31:00;30.90;75.70
1830;DHT22;914;48.118;11.600;2022-07-04T14:33:26;31.10;78.60
1830;DHT22;914;48.118;11.600;2022-07-04T14:35:52;31.30;75.30
1830;DHT22;914;48.118;11.600;2022-07-04T14:38:18;31.20;74.20
1830;DHT22;914;48.118;11.600;2022-07-04T14:40:44;31.00;75.70
1830;DHT22;914;48.118;11.600;2022-07-04T14:43:12;30.80;74.40
1830;DHT22;914;48.118;11.600;2022-07-04T14:45:38;30.70;75.60
1830;DHT22;914;48.118;11.600;2022-07-04T14:48:04;30.60;76.40
1830;DHT22;914;48.118;11.600;2022-07-04T14:50:30;30.20;74.30
1830;DHT22;914;48.118;11.600;2022-07-04T14:52:56;30.00;75.40
1830;DHT22;914;48.118;11.600;2022-07-04T14:55:22;29.80;75.40
1830;DHT22;914;48.118;11.600;2022-07-04T14:57:48;29.80;75.70
1830;DHT22;914;48.118;11.600;2022-07-04T15:00:14;29.70;74.50
1830;DHT22;914;48.118;11.600;2022-07-04T15:02:39;29.90;76.60
1830;DHT22;914;48.118;11.600;2022-07-04T15:05:05;30.40;76.90
1830;DHT22;914;48.118;11.600;2022-07-04T15:07:32;30.50;74.60
1830;DHT22;914;48.118;11.600;2022-07-04T15:09:59;30.20;74.70
1830;DHT22;914;48.118;11.600;2022-07-04T15:12:25;29.30;76.70
1830;DHT22;914;48.118;11.600;2022-07-04T15:14:51;29.40;78.10
1830;DHT22;914;48.118;11.600;2022-07-04T15:17:16;29.70;79.80
1830;DHT22;914;48.118;11.600;2022-07-04T15:19:43;29.80;78.30
1830;DHT22;914;48.118;11.600;2022-07-04T15:22:28;29.40;78.50
1830;DHT22;914;48.118;11.600;2022-07-04T15:25:12;29.40;78.60
1830;DHT22;914;48.118;11.600;2022-07-04T15:27:38;29.20;80.60
1830;DHT22;914;48.118;11.600;2022-07-04T15:30:04;29.50;80.00
1830;DHT22;914;48.118;11.600;2022-07-04T15:32:29;29.40;78.10
1830;DHT22;914;48.118;11.600;2022-07-04T15:34:55;29.40;79.20
1830;DHT22;914;48.118;11.600;2022-07-04T15:37:21;29.20;78.40
1830;DHT22;914;48.118;11.600;2022-07-04T15:39:46;28.80;79.70
1830;DHT22;914;48.118;11.600;2022-07-04T15:42:12;29.20;80.40
1830;DHT22;914;48.118;11.600;2022-07-04T15:44:37;29.30;80.50
1830;DHT22;914;48.118;11.600;2022-07-04T15:47:03;29.60;80.60
1830;DHT22;914;48.118;11.600;2022-07-04T15:49:35;29.30;78.20
1830;DHT22;914;48.118;11.600;2022-07-04T15:52:04;28.70;80.50
1830;DHT22;914;48.118;11.600;2022-07-04T15:54:31;29.20;81.20
1830;DHT22;914;48.118;11.600;2022-07-04T15:56:57;29.60;78.10
1830;DHT22;914;48.118;11.600;2022-07-04T15:59:24;29.30;78.50
1830;DHT22;914;48.118;11.600;2022-07-04T16:01:50;28.90;79.20
1830;DHT22;914;48.118;11.600;2022-07-04T16:04:15;28.60;79.20
1830;DHT22;914;48.118;11.600;2022-07-04T16:06:41;28.10;79.90
1830;DHT22;914;48.118;11.600;2022-07-04T16:09:07;28.20;81.70
1830;DHT22;914;48.118;11.600;2022-07-04T16:11:33;28.40;80.90
1830;DHT22;914;48.118;11.600;2022-07-04T16:13:59;28.50;80.50
1830;DHT22;914;48.118;11.600;2022-07-04T16:16:25;28.80;79.80
1830;DHT22;914;48.118;11.600;2022-07-04T16:18:50;28.90;79.60
1830;DHT22;914;48.118;11.600;2022-07-04T16:21:16;29.00;80.20
1830;DHT22;914;48.118;11.600;2022-07-04T16:23:42;29.00;80.10
1830;DHT22;914;48.118;11.600;2022-07-04T16:26:08;29.00;79.40
1830;DHT22;914;48.118;11.600;2022-07-04T16:28:34;28.50;79.90
1830;DHT22;914;48.118;11.600;2022-07-04T16:30:59;28.60;80.80
1830;DHT22;914;48.118;11.600;2022-07-04T16:33:25;28.90;80.60